Time;durP1;ratioP1;P1;durP2;ratioP2;P2;SDS_P1;SDS_P2;PMS_P1;PMS_P2;Temp;Humidity;BMP_temperature;BMP_pressure;BME280_temperature;BME280_humidity;BME280_pressure;Samples;Min_cycle;Max_cycle;Signal;HPM_P1;HPM_P2
2024/01/14 00:04:27;;;;;;;4.90;3.15;;;;;;;-15.00;82.82;99402.31;10529922;28;20553;-69
2024/01/14 00:09:29;;;;;;;5.75;2.72;;;;;;;-14.93;82.47;99400.72;10531618;28;20028;-69
2024/01/14 00:14:32;;;;;;;5.70;2.40;;;;;;;-14.88;82.59;99383.69;10531006;28;20047;-69
2024/01/14 00:19:35;;;;;;;5.78;2.60;;;;;;;-14.89;82.68;99382.03;10522954;28;20603;-69
2024/01/14 00:24:38;;;;;;;5.43;2.75;;;;;;;-14.88;82.26;99367.91;10523486;28;20401;-69
2024/01/14 00:29:40;;;;;;;7.68;3.20;;;;;;;-14.91;82.68;99358.50;10530029;28;20416;-69
2024/01/14 00:34:42;;;;;;;6.00;3.13;;;;;;;-14.93;82.33;99340.19;10528231;28;20040;-69
2024/01/14 00:39:45;;;;;;;5.45;2.78;;;;;;;-14.97;82.63;99323.06;10527688;28;20035;-69
2024/01/14 00:44:47;;;;;;;7.10;3.03;;;;;;;-14.94;82.02;99327.19;10511483;28;20040;-69
2024/01/14 00:49:49;;;;;;;5.28;2.85;;;;;;;-14.85;82.27;99330.75;10521219;28;20041;-69
2024/01/14 00:54:52;;;;;;;5.70;3.08;;;;;;;-14.89;82.16;99305.72;10510792;28;20123;-69
2024/01/14 00:59:55;;;;;;;5.47;2.92;;;;;;;-14.91;82.59;99308.50;10526953;28;20040;-69
2024/01/14 01:04:57;;;;;;;7.35;3.08;;;;;;;-14.98;82.12;99304.78;10526375;28;20048;-69
2024/01/14 01:10:00;;;;;;;6.65;3.25;;;;;;;-14.90;82.50;99296.16;10528185;28;20412;-69
2024/01/14 01:15:05;;;;;;;6.80;2.83;;;;;;;-14.89;82.94;99282.84;10515712;28;20123;-69
2024/01/14 01:20:08;;;;;;;6.22;2.90;;;;;;;-14.97;82.02;99283.59;10506340;28;20040;-69
2024/01/14 01:25:10;;;;;;;4.93;2.65;;;;;;;-14.89;82.98;99280.22;10526799;28;20040;-69
2024/01/14 01:30:13;;;;;;;8.38;3.95;;;;;;;-14.72;82.95;99278.53;10525684;28;20440;-69
2024/01/14 01:35:16;;;;;;;6.55;2.47;;;;;;;-14.77;82.31;99278.16;10500151;28;20063;-69
2024/01/14 01:40:18;;;;;;;7.38;2.60;;;;;;;-14.84;81.90;99264.78;10526356;28;20036;-69
2024/01/14 01:45:20;;;;;;;6.43;3.15;;;;;;;-14.80;82.07;99260.84;10526662;28;20055;-70
2024/01/14 01:50:22;;;;;;;6.22;3.20;;;;;;;-14.84;82.78;99251.63;10526824;28;20044;-69
2024/01/14 01:55:25;;;;;;;5.82;2.40;;;;;;;-14.93;81.98;99244.63;10524386;28;20475;-70
2024/01/14 02:00:28;;;;;;;5.75;2.80;;;;;;;-14.96;82.21;99223.88;10526445;28;20051;-69
2024/01/14 02:05:32;;;;;;;5.60;2.75;;;;;;;-14.89;82.81;99208.34;10525173;28;20524;-70
2024/01/14 02:10:34;;;;;;;4.15;2.63;;;;;;;-14.86;82.83;99214.09;10507529;28;20055;-69
2024/01/14 02:15:37;;;;;;;5.30;2.47;;;;;;;-14.95;82.81;99202.69;10505601;28;20043;-69
2024/01/14 02:20:40;;;;;;;5.28;2.40;;;;;;;-14.95;82.30;99200.06;10525422;28;20044;-68
2024/01/14 02:25:43;;;;;;;4.60;2.53;;;;;;;-14.95;82.48;99200.06;10523678;28;20037;-68
2024/01/14 02:30:45;;;;;;;5.28;2.72;;;;;;;-14.94;82.45;99191.19;10522787;28;20036;-69
2024/01/14 02:35:47;;;;;;;5.03;2.20;;;;;;;-14.94;82.66;99178.00;10524052;28;20045;-69
2024/01/14 02:40:49;;;;;;;6.38;2.70;;;;;;;-14.78;82.25;99179.09;10519962;28;20126;-69
2024/01/14 02:45:52;;;;;;;4.78;2.72;;;;;;;-14.70;82.71;99163.38;10513784;28;20037;-69
2024/01/14 02:50:54;;;;;;;7.03;2.88;;;;;;;-14.78;81.94;99144.88;10523777;28;20048;-69
2024/01/14 02:55:56;;;;;;;6.10;2.55;;;;;;;-14.74;81.66;99151.50;10523250;28;20400;-69
2024/01/14 03:00:59;;;;;;;5.20;2.10;;;;;;;-14.79;81.72;99149.31;10520813;28;20543;-70
2024/01/14 03:06:01;;;;;;;4.15;2.45;;;;;;;-14.77;82.67;99149.16;10523538;28;20036;-70
2024/01/14 03:11:04;;;;;;;4.28;2.50;;;;;;;-14.61;82.39;99128.19;10522258;28;20035;-69
2024/01/14 03:16:06;;;;;;;5.70;2.90;;;;;;;-14.59;82.42;99131.47;10522546;28;20412;-70
2024/01/14 03:21:16;;;;;;;4.28;2.40;;;;;;;-14.60;82.46;99124.56;10488531;28;20032;-69
2024/01/14 03:26:19;;;;;;;3.85;2.75;;;;;;;-14.45;82.62;99114.25;10523967;28;20455;-69
2024/01/14 03:31:21;;;;;;;5.25;2.85;;;;;;;-14.35;82.16;99101.75;10527254;28;20035;-69
2024/01/14 03:36:23;;;;;;;5.07;2.33;;;;;;;-14.37;81.43;99093.19;10522485;28;20048;-70
2024/01/14 03:41:26;;;;;;;4.93;2.42;;;;;;;-14.48;81.66;99075.91;10517460;28;20041;-70
2024/01/14 03:46:28;;;;;;;4.30;2.50;;;;;;;-14.54;81.43;99068.66;10522083;28;20534;-70
2024/01/14 03:51:31;;;;;;;4.13;2.72;;;;;;;-14.54;81.80;99066.03;10522131;28;20044;-69
2024/01/14 03:56:33;;;;;;;5.55;3.03;;;;;;;-14.48;81.78;99056.66;10521385;28;20647;-70
2024/01/14 04:01:36;;;;;;;5.65;2.80;;;;;;;-14.37;82.08;99043.97;10520102;28;20424;-69
2024/01/14 04:06:40;;;;;;;4.85;3.05;;;;;;;-14.38;81.46;99041.50;10519201;28;20571;-69
2024/01/14 04:11:43;;;;;;;6.70;2.67;;;;;;;-14.41;81.40;99040.00;10524416;28;20389;-70
2024/01/14 04:16:45;;;;;;;4.78;2.28;;;;;;;-14.29;82.16;99029.16;10528804;28;20037;-69
2024/01/14 04:21:48;;;;;;;5.43;2.55;;;;;;;-14.30;82.44;99025.72;10528413;28;20252;-71
2024/01/14 04:26:51;;;;;;;4.78;2.55;;;;;;;-14.34;81.83;99027.84;10527527;28;20519;-69
2024/01/14 04:31:53;;;;;;;5.57;2.85;;;;;;;-14.24;82.67;99024.22;10528805;28;20043;-69
2024/01/14 04:36:55;;;;;;;3.90;2.53;;;;;;;-14.18;82.03;99010.41;10524808;28;20420;-70
2024/01/14 04:41:58;;;;;;;7.47;3.17;;;;;;;-14.11;81.77;99011.41;10520073;28;20052;-70
2024/01/14 04:47:00;;;;;;;4.80;2.25;;;;;;;-14.19;81.76;99003.50;10510068;28;20052;-69
2024/01/14 04:52:03;;;;;;;6.55;3.63;;;;;;;-14.07;81.57;98997.72;10528134;28;20749;-68
2024/01/14 04:57:05;;;;;;;7.05;3.20;;;;;;;-14.10;81.17;98984.06;10528125;28;20040;-68
2024/01/14 05:02:07;;;;;;;7.13;2.90;;;;;;;-14.15;81.04;98983.75;10529067;28;20040;-68
2024/01/14 05:07:10;;;;;;;4.13;2.47;;;;;;;-14.12;81.19;98976.31;10514623;28;20036;-69
2024/01/14 05:12:12;;;;;;;6.75;2.90;;;;;;;-14.02;81.53;98970.91;10529146;28;20040;-70
2024/01/14 05:17:14;;;;;;;5.10;2.72;;;;;;;-14.00;82.03;98961.00;10521964;28;20037;-70
2024/01/14 05:22:17;;;;;;;4.57;2.90;;;;;;;-13.97;81.94;98955.41;10528050;28;20072;-70
2024/01/14 05:27:24;;;;;;;6.15;3.20;;;;;;;-13.77;82.34;98959.34;10528139;28;20044;-69
2024/01/14 05:32:26;;;;;;;5.60;2.90;;;;;;;-13.72;81.58;98956.19;10508791;28;20039;-70
2024/01/14 05:37:29;;;;;;;7.47;3.38;;;;;;;-13.59;81.36;98955.66;10527329;28;20032;-70
2024/01/14 05:42:31;;;;;;;6.18;3.15;;;;;;;-13.51;81.10;98940.66;10527025;28;20040;-69
2024/01/14 05:47:34;;;;;;;5.20;3.00;;;;;;;-13.57;81.43;98941.31;10524624;28;20044;-69
2024/01/14 05:52:36;;;;;;;4.63;2.85;;;;;;;-13.59;80.92;98940.66;10526343;28;20044;-69
2024/01/14 05:57:38;;;;;;;5.50;2.97;;;;;;;-13.58;81.72;98931.75;10522729;28;20531;-68
2024/01/14 06:02:41;;;;;;;6.20;2.88;;;;;;;-13.55;81.28;98926.16;10518150;28;20043;-69
2024/01/14 06:07:44;;;;;;;6.70;3.15;;;;;;;-13.49;81.17;98919.38;10522510;28;20059;-70
2024/01/14 06:12:47;;;;;;;6.72;3.28;;;;;;;-13.42;80.94;98922.97;10524409;28;20041;-70
2024/01/14 06:17:50;;;;;;;6.47;2.85;;;;;;;-13.43;81.11;98932.72;10525364;28;20032;-68
2024/01/14 06:22:53;;;;;;;6.78;3.05;;;;;;;-13.43;81.71;98924.78;10524383;28;20139;-69
2024/01/14 06:27:55;;;;;;;5.03;2.90;;;;;;;-13.37;81.22;98910.09;10525576;28;20535;-68
2024/01/14 06:32:58;;;;;;;7.95;3.15;;;;;;;-13.39;80.99;98920.00;10508069;28;20051;-68
2024/01/14 06:38:02;;;;;;;6.82;3.47;;;;;;;-13.42;82.09;98915.06;10506588;28;20036;-69
2024/01/14 06:43:05;;;;;;;5.70;3.20;;;;;;;-13.33;81.72;98914.06;10523334;28;20063;-69
2024/01/14 06:48:08;;;;;;;5.75;3.25;;;;;;;-13.30;81.59;98911.06;10523477;28;20048;-69
2024/01/14 06:53:10;;;;;;;6.78;3.78;;;;;;;-13.23;81.46;98912.03;10526905;28;20045;-69
2024/01/14 06:58:14;;;;;;;7.03;3.47;;;;;;;-13.22;81.87;98916.31;10527800;28;20043;-69
2024/01/14 07:03:16;;;;;;;6.28;3.17;;;;;;;-13.24;81.97;98905.09;10506758;28;20041;-70
2024/01/14 07:08:19;;;;;;;7.13;3.63;;;;;;;-13.17;81.48;98892.03;10506188;28;20032;-68
2024/01/14 07:13:22;;;;;;;8.77;3.85;;;;;;;-13.36;81.13;98895.94;10518860;28;20044;-69
2024/01/14 07:18:24;;;;;;;7.38;3.70;;;;;;;-13.20;81.84;98892.38;10523200;28;20037;-69
2024/01/14 07:23:27;;;;;;;8.95;4.30;;;;;;;-13.31;81.09;98890.13;10524056;28;20044;-68
2024/01/14 07:28:30;;;;;;;12.45;4.07;;;;;;;-13.29;81.15;98891.59;10523955;28;20047;-68
2024/01/14 07:33:34;;;;;;;7.72;3.78;;;;;;;-13.38;81.62;98894.44;10524650;28;20044;-68
2024/01/14 07:38:36;;;;;;;8.13;3.70;;;;;;;-13.35;81.80;98886.22;10523606;28;20032;-68
2024/01/14 07:43:40;;;;;;;7.40;3.80;;;;;;;-13.23;80.87;98890.09;10502658;28;20053;-67
2024/01/14 07:48:43;;;;;;;6.45;3.72;;;;;;;-13.21;80.97;98891.56;10499737;28;20037;-68
2024/01/14 07:53:45;;;;;;;7.93;3.55;;;;;;;-13.21;80.51;98882.81;10531850;28;20047;-67
2024/01/14 07:58:48;;;;;;;7.53;3.95;;;;;;;-13.10;80.47;98880.59;10530692;28;20416;-68
2024/01/14 08:03:51;;;;;;;7.28;3.72;;;;;;;-12.93;81.06;98877.84;10530296;28;20044;-69
2024/01/14 08:08:54;;;;;;;8.05;3.92;;;;;;;-12.78;80.40;98873.47;10530123;28;20075;-69
2024/01/14 08:13:58;;;;;;;6.53;3.65;;;;;;;-12.98;79.48;98874.94;10531431;28;20044;-69
2024/01/14 08:19:00;;;;;;;7.78;4.03;;;;;;;-13.01;80.02;98883.19;10527188;28;20036;-68
2024/01/14 08:24:03;;;;;;;7.97;3.65;;;;;;;-13.03;79.64;98872.78;10531327;28;20051;-69
2024/01/14 08:29:06;;;;;;;9.80;3.88;;;;;;;-13.24;78.68;98860.25;10530660;28;20043;-68
2024/01/14 08:34:08;;;;;;;6.75;3.15;;;;;;;-13.25;79.70;98861.22;10528565;28;20131;-69
2024/01/14 08:39:11;;;;;;;7.63;3.70;;;;;;;-13.61;78.59;98852.16;10528153;28;20033;-68
2024/01/14 08:44:15;;;;;;;6.75;4.00;;;;;;;-13.72;79.37;98841.00;10526957;28;20051;-68
2024/01/14 08:49:18;;;;;;;7.00;3.45;;;;;;;-13.68;79.30;98835.41;10493977;28;20139;-69
2024/01/14 08:54:21;;;;;;;6.95;3.35;;;;;;;-13.44;79.81;98830.00;10526531;28;20045;-68
2024/01/14 08:59:42;;;;;;;6.47;3.35;;;;;;;-13.55;79.52;98831.19;10493037;28;20040;-69
2024/01/14 09:04:56;;;;;;;6.65;3.80;;;;;;;-13.53;79.26;98820.50;10500488;28;20040;-69
2024/01/14 09:10:07;;;;;;;4.30;3.17;;;;;;;-13.42;79.82;98815.66;10511063;28;20507;-69
2024/01/14 09:15:20;;;;;;;6.40;3.40;;;;;;;-13.38;79.06;98805.56;10519144;28;20089;-68
2024/01/14 09:20:23;;;;;;;5.00;3.75;;;;;;;-13.38;79.17;98815.28;10518338;28;20029;-68
2024/01/14 09:25:26;;;;;;;7.65;3.65;;;;;;;-13.40;79.77;98812.84;10486429;28;20496;-69
2024/01/14 09:30:28;;;;;;;6.20;3.67;;;;;;;-13.42;78.94;98814.81;10473127;28;20064;-69
2024/01/14 09:35:31;;;;;;;6.97;3.88;;;;;;;-13.40;78.54;98807.56;10475866;28;20036;-68
2024/01/14 09:40:35;;;;;;;4.15;3.53;;;;;;;-13.12;78.58;98800.78;10508389;28;20063;-68
2024/01/14 09:45:40;;;;;;;9.80;4.32;;;;;;;-12.83;77.89;98788.69;10527743;28;20424;-68
2024/01/14 09:50:42;;;;;;;9.48;4.28;;;;;;;-12.95;77.13;98795.38;10526607;28;20055;-68
2024/01/14 09:55:48;;;;;;;7.43;4.28;;;;;;;-12.95;78.19;98787.47;10525033;28;20500;-69
2024/01/14 10:00:50;;;;;;;7.70;4.45;;;;;;;-12.90;77.98;98782.47;10506510;28;20051;-69
2024/01/14 10:05:53;;;;;;;8.52;4.75;;;;;;;-13.04;77.87;98784.03;10521946;28;21667;-69
2024/01/14 10:10:57;;;;;;;9.20;4.57;;;;;;;-12.92;77.75;98763.34;10526347;28;20440;-69
2024/01/14 10:16:01;;;;;;;7.18;4.22;;;;;;;-13.29;77.72;98762.31;10525839;28;20040;-68
2024/01/14 10:21:04;;;;;;;10.50;4.32;;;;;;;-13.10;78.23;98753.09;10525257;28;20094;-67
2024/01/14 10:26:08;;;;;;;8.65;4.07;;;;;;;-13.07;77.97;98744.81;10498216;28;20047;-68
2024/01/14 10:31:10;;;;;;;9.07;4.55;;;;;;;-12.92;77.71;98744.84;10530484;28;20162;-68
2024/01/14 10:36:13;;;;;;;7.85;4.90;;;;;;;-12.91;77.42;98746.50;10553046;28;20062;-66
2024/01/14 10:41:16;;;;;;;7.25;4.47;;;;;;;-13.00;78.06;98740.47;10538014;28;20036;-66
2024/01/14 10:46:19;;;;;;;10.35;4.95;;;;;;;-12.95;77.89;98732.03;10496157;28;20507;-67
2024/01/14 10:51:25;;;;;;;7.47;5.03;;;;;;;-12.77;77.29;98724.59;10546521;28;20040;-67
2024/01/14 10:56:32;;;;;;;9.05;4.32;;;;;;;-12.70;77.51;98714.94;10525584;28;20415;-67
2024/01/14 11:01:42;;;;;;;6.93;4.40;;;;;;;-12.74;77.48;98708.38;10537225;28;20032;-65
2024/01/14 11:06:46;;;;;;;7.63;4.13;;;;;;;-13.06;77.23;98700.75;10508865;28;20448;-67
2024/01/14 11:11:52;;;;;;;10.57;4.07;;;;;;;-12.90;78.00;98703.25;10525757;28;20512;-68
2024/01/14 11:17:10;;;;;;;8.68;4.55;;;;;;;-12.85;78.42;98696.44;10521857;28;20040;-67
2024/01/14 11:22:19;;;;;;;6.85;4.28;;;;;;;-12.89;78.10;98695.16;10534997;28;20697;-69
2024/01/14 11:27:22;;;;;;;6.68;4.20;;;;;;;-12.72;78.27;98693.19;10523036;28;20075;-68
2024/01/14 11:32:26;;;;;;;9.30;4.63;;;;;;;-12.90;77.93;98695.34;10490059;28;20041;-68
2024/01/14 11:37:47;;;;;;;6.40;3.90;;;;;;;-12.71;78.03;98683.44;10497034;28;20063;-67
2024/01/14 11:42:56;;;;;;;9.25;4.10;;;;;;;-12.91;78.76;98691.06;10512374;28;20043;-67
2024/01/14 11:47:59;;;;;;;10.35;4.72;;;;;;;-12.73;78.77;98672.25;10516527;28;20048;-66
2024/01/14 11:53:04;;;;;;;9.25;4.07;;;;;;;-12.92;78.13;98658.56;10500904;28;20051;-70
2024/01/14 11:58:11;;;;;;;6.70;4.30;;;;;;;-12.87;78.19;98663.28;10504191;28;20060;-68
2024/01/14 12:03:14;;;;;;;7.13;4.40;;;;;;;-12.86;78.35;98651.72;10517309;28;20052;-68
2024/01/14 12:08:17;;;;;;;9.82;5.47;;;;;;;-12.92;78.52;98657.75;10520524;28;20032;-68
2024/01/14 12:13:20;;;;;;;9.85;5.80;;;;;;;-12.69;78.78;98658.47;10505781;28;20040;-67
2024/01/14 12:18:23;;;;;;;10.45;5.90;;;;;;;-12.63;78.23;98646.38;10506754;28;20045;-68
2024/01/14 12:23:26;;;;;;;13.20;6.88;;;;;;;-12.62;77.98;98643.56;10520731;28;20078;-68
2024/01/14 12:28:28;;;;;;;14.15;7.40;;;;;;;-12.70;78.48;98646.28;10538769;28;20058;-67
2024/01/14 12:33:33;;;;;;;11.15;6.20;;;;;;;-12.74;77.63;98649.47;10520718;28;20045;-66
2024/01/14 12:38:36;;;;;;;14.90;6.13;;;;;;;-12.91;78.71;98649.63;10516674;28;20400;-67
2024/01/14 12:43:39;;;;;;;12.57;6.40;;;;;;;-12.86;79.25;98649.09;10552264;28;20041;-65
2024/01/14 12:48:43;;;;;;;18.42;7.38;;;;;;;-12.82;79.32;98643.28;10515331;28;20059;-66
2024/01/14 12:53:55;;;;;;;19.27;8.73;;;;;;;-12.87;79.51;98629.78;10505977;28;20041;-67
2024/01/14 12:58:59;;;;;;;16.48;7.78;;;;;;;-12.81;79.10;98618.53;10514055;28;20087;-66
2024/01/14 13:04:01;;;;;;;16.88;7.85;;;;;;;-12.76;79.79;98617.16;10524727;28;20036;-65
2024/01/14 13:09:04;;;;;;;21.05;8.93;;;;;;;-13.06;80.45;98614.47;10523662;28;20504;-64
2024/01/14 13:14:07;;;;;;;16.23;7.95;;;;;;;-12.94;80.18;98606.94;10527532;28;20036;-65
2024/01/14 13:19:09;;;;;;;16.85;8.25;;;;;;;-12.79;80.59;98605.13;10501514;28;20048;-65
2024/01/14 13:24:11;;;;;;;18.15;8.10;;;;;;;-12.70;79.95;98598.75;10525452;28;20052;-66
2024/01/14 13:29:14;;;;;;;17.10;6.55;;;;;;;-12.74;80.18;98584.28;10526542;28;20530;-66
2024/01/14 13:34:16;;;;;;;16.05;7.28;;;;;;;-12.70;80.64;98579.44;10526231;28;20036;-66
2024/01/14 13:39:19;;;;;;;12.25;6.55;;;;;;;-12.74;81.08;98580.81;10525678;28;20041;-65
2024/01/14 13:44:22;;;;;;;12.30;6.38;;;;;;;-12.74;80.75;98580.81;10528615;28;20041;-66
2024/01/14 13:49:24;;;;;;;10.85;5.35;;;;;;;-12.67;81.67;98576.44;10529113;28;20063;-64
2024/01/14 13:54:27;;;;;;;9.60;3.95;;;;;;;-12.64;81.12;98571.63;10528804;28;20043;-64
2024/01/14 13:59:29;;;;;;;8.70;3.53;;;;;;;-12.72;81.61;98574.34;10527282;28;20054;-64
2024/01/14 14:04:31;;;;;;;5.13;3.40;;;;;;;-12.75;81.02;98574.72;10527731;28;20043;-64
2024/01/14 14:09:34;;;;;;;7.40;3.30;;;;;;;-12.71;81.83;98561.97;10527948;28;20048;-64
2024/01/14 14:14:37;;;;;;;8.82;4.47;;;;;;;-12.74;81.75;98546.47;10527299;28;20071;-64
2024/01/14 14:19:39;;;;;;;4.72;2.58;;;;;;;-12.90;82.05;98555.41;10526512;28;20040;-63
2024/01/14 14:24:43;;;;;;;6.20;3.10;;;;;;;-12.85;81.83;98567.06;10524114;28;20507;-63
2024/01/14 14:29:47;;;;;;;7.68;3.75;;;;;;;-12.75;81.67;98558.88;10522494;28;20525;-64
2024/01/14 14:34:49;;;;;;;5.55;3.45;;;;;;;-12.81;82.71;98547.22;10522627;28;20041;-64
2024/01/14 14:39:52;;;;;;;6.53;3.22;;;;;;;-12.72;81.97;98531.28;10512988;28;20032;-65
2024/01/14 14:44:54;;;;;;;5.93;3.55;;;;;;;-12.71;82.54;98528.44;10523357;28;20039;-64
2024/01/14 14:49:57;;;;;;;5.28;2.65;;;;;;;-12.65;82.59;98534.84;10524336;28;20051;-67
2024/01/14 14:55:00;;;;;;;10.00;3.58;;;;;;;-12.59;81.74;98531.44;10521106;28;20039;-66
2024/01/14 15:00:02;;;;;;;9.38;4.25;;;;;;;-12.67;82.42;98529.69;10537108;28;20044;-65
2024/01/14 15:05:05;;;;;;;4.47;3.35;;;;;;;-12.61;82.72;98523.69;10504616;28;20064;-67
2024/01/14 15:10:08;;;;;;;6.10;3.40;;;;;;;-12.61;83.07;98528.97;10521315;28;20040;-66
2024/01/14 15:15:10;;;;;;;5.95;3.17;;;;;;;-12.63;82.46;98531.00;10521762;28;20039;-68
2024/01/14 15:20:12;;;;;;;8.10;3.50;;;;;;;-12.67;83.35;98508.56;10511807;28;20036;-64
2024/01/14 15:25:15;;;;;;;7.47;3.17;;;;;;;-12.55;82.78;98508.94;10515547;28;20056;-66
2024/01/14 15:30:17;;;;;;;14.55;4.82;;;;;;;-12.67;82.12;98513.84;10505818;28;20033;-64
2024/01/14 15:35:20;;;;;;;7.32;3.30;;;;;;;-12.74;82.26;98502.41;10502559;28;20424;-66
2024/01/14 15:40:22;;;;;;;8.20;4.00;;;;;;;-12.76;83.13;98488.56;10512134;28;20048;-66
2024/01/14 15:45:24;;;;;;;10.40;4.65;;;;;;;-12.68;83.27;98485.81;10515257;28;20052;-66
2024/01/14 15:50:27;;;;;;;7.45;3.97;;;;;;;-12.75;82.71;98477.00;10507989;28;20424;-66
2024/01/14 15:55:29;;;;;;;13.38;5.70;;;;;;;-12.70;83.46;98479.91;10513876;28;20036;-66
2024/01/14 16:00:31;;;;;;;4.18;3.05;;;;;;;-12.65;82.92;98477.53;10486963;28;20043;-66
2024/01/14 16:05:33;;;;;;;7.57;3.65;;;;;;;-12.77;83.07;98475.56;10521647;28;20047;-65
2024/01/14 16:10:36;;;;;;;9.63;3.30;;;;;;;-12.81;83.16;98461.91;10482499;28;20028;-65
2024/01/14 16:15:38;;;;;;;6.32;3.58;;;;;;;-12.86;83.16;98462.44;10531755;28;20045;-64
2024/01/14 16:20:41;;;;;;;6.05;3.72;;;;;;;-12.74;83.58;98454.06;10506331;28;20041;-65
2024/01/14 16:25:43;;;;;;;6.95;3.28;;;;;;;-12.73;82.77;98455.69;10496993;28;20036;-66
2024/01/14 16:30:46;;;;;;;13.45;3.70;;;;;;;-12.70;83.18;98455.31;10508275;28;20411;-66
2024/01/14 16:35:48;;;;;;;8.43;4.07;;;;;;;-12.69;83.09;98456.94;10535180;28;20029;-66
2024/01/14 16:40:53;;;;;;;5.97;3.85;;;;;;;-12.80;82.33;98450.34;10495977;28;20041;-66
2024/01/14 16:45:55;;;;;;;5.85;3.85;;;;;;;-12.80;83.38;98447.72;10533033;28;20040;-66
2024/01/14 16:50:58;;;;;;;10.05;4.50;;;;;;;-12.73;83.64;98456.50;10534639;28;20602;-66
2024/01/14 16:56:01;;;;;;;7.53;4.82;;;;;;;-12.74;83.54;98444.31;10517927;28;20050;-65
2024/01/14 17:01:04;;;;;;;5.80;3.25;;;;;;;-12.72;83.28;98437.03;10499897;28;20416;-67
2024/01/14 17:06:07;;;;;;;8.00;3.25;;;;;;;-12.66;82.74;98435.47;10498632;28;20037;-65
2024/01/14 17:11:10;;;;;;;7.60;4.03;;;;;;;-12.69;82.89;98439.28;10516946;28;20032;-66
2024/01/14 17:16:24;;;;;;;6.32;4.05;;;;;;;-12.72;83.00;98436.22;10531233;28;20405;-67
2024/01/14 17:21:27;;;;;;;6.53;4.13;;;;;;;-12.71;82.79;98427.28;10502116;28;20041;-66
2024/01/14 17:26:30;;;;;;;8.35;4.43;;;;;;;-12.68;83.13;98434.81;10518388;28;20451;-66
2024/01/14 17:31:32;;;;;;;6.22;3.53;;;;;;;-12.81;83.28;98430.22;10523639;28;20111;-66
2024/01/14 17:36:35;;;;;;;11.40;4.45;;;;;;;-12.80;83.35;98431.88;10518556;28;20032;-64
2024/01/14 17:41:37;;;;;;;10.02;4.63;;;;;;;-12.75;83.11;98421.56;10534743;28;20041;-65
2024/01/14 17:46:40;;;;;;;10.80;5.13;;;;;;;-12.71;83.24;98428.09;10520579;28;20424;-65
2024/01/14 17:51:42;;;;;;;7.10;4.47;;;;;;;-12.75;83.47;98410.19;10515422;28;20518;-64
2024/01/14 17:56:45;;;;;;;9.88;3.80;;;;;;;-12.67;83.66;98412.69;10513116;28;20551;-65
2024/01/14 18:01:47;;;;;;;8.25;3.60;;;;;;;-12.67;84.10;98405.59;10515855;28;20036;-66
2024/01/14 18:06:50;;;;;;;10.18;3.83;;;;;;;-12.71;83.13;98400.88;10506245;28;20048;-64
2024/01/14 18:11:52;;;;;;;7.45;5.05;;;;;;;-12.73;84.01;98403.69;10515597;28;20033;-65
2024/01/14 18:16:55;;;;;;;7.43;4.30;;;;;;;-12.59;83.49;98389.63;10499182;28;20047;-65
2024/01/14 18:21:58;;;;;;;4.60;3.28;;;;;;;-12.71;83.26;98385.84;10508227;28;20572;-66
2024/01/14 18:27:00;;;;;;;5.18;3.38;;;;;;;-12.80;82.98;98365.88;10517126;28;20040;-64
2024/01/14 18:32:03;;;;;;;8.55;3.80;;;;;;;-12.77;83.17;98368.13;10511835;28;20482;-63
2024/01/14 18:37:05;;;;;;;7.50;4.40;;;;;;;-12.66;83.28;98354.44;10515596;28;20507;-65
2024/01/14 18:42:08;;;;;;;3.55;2.85;;;;;;;-12.68;83.69;98379.38;10519050;28;20036;-64
2024/01/14 18:47:12;;;;;;;7.68;4.38;;;;;;;-12.70;83.67;98365.53;10529842;28;20055;-64
2024/01/14 18:52:14;;;;;;;6.75;3.50;;;;;;;-12.63;84.20;98351.41;10516857;28;20036;-65
2024/01/14 18:57:17;;;;;;;8.50;3.95;;;;;;;-12.53;83.48;98361.63;10520987;28;20059;-64
2024/01/14 19:02:20;;;;;;;5.68;3.97;;;;;;;-12.58;84.12;98354.28;10511687;28;20134;-65
2024/01/14 19:07:23;;;;;;;6.65;3.60;;;;;;;-12.55;83.49;98350.44;10511911;28;20044;-65
2024/01/14 19:12:26;;;;;;;8.13;4.00;;;;;;;-12.45;83.64;98358.88;10493497;28;20028;-65
2024/01/14 19:17:29;;;;;;;5.68;3.67;;;;;;;-12.52;83.49;98342.94;10500726;28;20037;-63
2024/01/14 19:22:31;;;;;;;5.20;3.33;;;;;;;-12.48;84.21;98346.88;10505543;28;20528;-64
2024/01/14 19:27:35;;;;;;;6.20;3.83;;;;;;;-12.43;83.72;98358.69;10508038;28;20096;-64
2024/01/14 19:32:37;;;;;;;7.10;4.05;;;;;;;-12.39;83.96;98350.19;10494025;28;20032;-64
2024/01/14 19:37:39;;;;;;;5.18;4.03;;;;;;;-12.31;83.59;98344.78;10526966;28;20040;-64
2024/01/14 19:42:42;;;;;;;11.45;4.55;;;;;;;-12.31;84.19;98339.47;10508206;28;20037;-65
2024/01/14 19:47:45;;;;;;;8.25;3.95;;;;;;;-12.23;83.64;98331.41;10523567;28;20116;-64
2024/01/14 19:52:53;;;;;;;6.85;4.13;;;;;;;-12.15;83.69;98332.25;10512591;28;20439;-66
2024/01/14 19:58:02;;;;;;;6.80;3.83;;;;;;;-12.14;83.68;98328.63;10541381;28;20600;-65
2024/01/14 20:03:04;;;;;;;;;;;;;;;-12.10;84.35;98333.31;10544823;28;20058;-66
2024/01/14 20:08:07;;;;;;;6.22;3.80;;;;;;;-12.13;84.00;98328.44;10523378;28;20392;-65
2024/01/14 20:13:10;;;;;;;8.63;4.13;;;;;;;-12.07;83.97;98324.19;10509078;28;20041;-66
2024/01/14 20:18:12;;;;;;;4.55;2.95;;;;;;;-11.95;83.72;98315.53;10518902;28;20381;-66
2024/01/14 20:23:15;;;;;;;6.60;3.60;;;;;;;-11.91;83.35;98310.66;10505347;28;20427;-66
2024/01/14 20:28:18;;;;;;;4.85;2.65;;;;;;;-11.92;83.73;98315.13;10521950;28;20037;-66
2024/01/14 20:33:23;;;;;;;6.05;4.03;;;;;;;-11.90;83.26;98321.03;10524051;28;20045;-66
2024/01/14 20:38:25;;;;;;;6.50;3.47;;;;;;;-11.94;84.03;98311.88;10521118;28;20419;-66
2024/01/14 20:43:28;;;;;;;6.43;4.30;;;;;;;-11.95;83.93;98310.25;10498821;28;20032;-66
2024/01/14 20:48:33;;;;;;;7.07;3.80;;;;;;;-11.80;83.67;98307.47;10520522;28;20535;-65
2024/01/14 20:53:35;;;;;;;6.25;3.97;;;;;;;-11.85;83.44;98291.38;10502794;28;20036;-65
2024/01/14 20:58:42;;;;;;;11.80;4.40;;;;;;;-11.82;83.52;98290.16;10531103;28;20039;-60
2024/01/14 21:03:47;;;;;;;6.22;3.65;;;;;;;-11.65;83.45;98288.78;10521420;28;20036;-65
2024/01/14 21:08:52;;;;;;;4.57;2.88;;;;;;;-11.73;84.07;98295.06;10523033;28;20035;-65
2024/01/14 21:13:55;;;;;;;9.93;4.57;;;;;;;-11.79;83.57;98295.06;10508623;28;20037;-65
2024/01/14 21:18:58;;;;;;;9.05;4.10;;;;;;;-11.85;83.28;98287.91;10520501;28;20037;-65
2024/01/14 21:24:00;;;;;;;6.60;4.03;;;;;;;-11.76;83.57;98284.06;10519232;28;20071;-67
2024/01/14 21:29:03;;;;;;;7.13;3.83;;;;;;;-11.83;83.47;98293.81;10521460;28;20492;-64
2024/01/14 21:34:06;;;;;;;9.52;4.00;;;;;;;-11.88;84.36;98286.47;10523851;28;20043;-64
2024/01/14 21:39:10;;;;;;;6.60;4.53;;;;;;;-11.86;83.93;98284.44;10520955;28;20033;-67
2024/01/14 21:44:12;;;;;;;7.45;4.60;;;;;;;-11.85;84.41;98275.50;10518570;28;20036;-64
2024/01/14 21:49:15;;;;;;;8.20;3.80;;;;;;;-11.96;84.59;98268.94;10521900;28;20055;-64
2024/01/14 21:54:17;;;;;;;9.93;4.45;;;;;;;-11.82;84.75;98276.94;10521675;28;20036;-64
2024/01/14 21:59:19;;;;;;;10.82;5.40;;;;;;;-11.85;84.88;98274.69;10521948;28;20071;-64
2024/01/14 22:04:23;;;;;;;9.43;4.55;;;;;;;-11.82;84.66;98284.84;10520847;28;20043;-65
2024/01/14 22:09:26;;;;;;;8.85;4.53;;;;;;;-11.82;84.56;98271.63;10522500;28;20040;-65
2024/01/14 22:14:28;;;;;;;7.70;3.60;;;;;;;-11.77;85.32;98261.28;10515858;28;20049;-65
2024/01/14 22:19:31;;;;;;;7.70;4.80;;;;;;;-11.87;85.66;98272.22;10521449;28;20032;-65
2024/01/14 22:24:33;;;;;;;12.80;5.45;;;;;;;-11.85;85.46;98261.47;10521204;28;20089;-65
2024/01/14 22:29:36;;;;;;;9.43;5.88;;;;;;;-11.91;84.94;98249.84;10520827;28;20044;-64
2024/01/14 22:34:40;;;;;;;9.68;4.47;;;;;;;-11.84;85.82;98239.28;10515215;28;20070;-64
2024/01/14 22:39:42;;;;;;;9.20;4.78;;;;;;;-11.93;85.65;98231.53;10492875;28;20725;-65
2024/01/14 22:44:46;;;;;;;13.82;6.05;;;;;;;-11.83;86.15;98231.16;10515489;28;20036;-64
2024/01/14 22:49:49;;;;;;;12.90;5.47;;;;;;;-11.83;85.53;98230.34;10519793;28;20063;-66
2024/01/14 22:55:00;;;;;;;14.80;4.80;;;;;;;-11.93;86.54;98223.59;10520573;28;20044;-65
2024/01/14 23:00:02;;;;;;;14.52;6.90;;;;;;;-12.05;85.90;98227.81;10518308;28;20040;-66
2024/01/14 23:05:05;;;;;;;16.35;6.90;;;;;;;-12.02;86.33;98221.31;10519425;28;20032;-65
2024/01/14 23:10:08;;;;;;;11.68;5.15;;;;;;;-12.04;86.80;98208.28;10504770;28;20031;-66
2024/01/14 23:15:10;;;;;;;15.48;5.78;;;;;;;-11.97;87.56;98211.00;10522131;28;20037;-66